createdAt,value
2022-12-09T00:04:25.029Z,19.45
2022-12-09T00:09:26.592Z,18.48
2022-12-09T00:14:28.057Z,17.90
2022-12-09T00:19:29.615Z,17.45
2022-12-09T00:24:31.357Z,18.95
2022-12-09T00:29:32.920Z,17.30
2022-12-09T00:34:34.411Z,18.48
2022-12-09T00:39:35.945Z,20.45
2022-12-09T00:44:39.424Z,15.90
2022-12-09T00:49:41.127Z,19.95
2022-12-09T00:54:42.890Z,18.08
2022-12-09T00:59:44.561Z,19.95
2022-12-09T01:04:46.195Z,23.90
2022-12-09T01:09:48.848Z,21.05
2022-12-09T01:14:50.490Z,19.60
2022-12-09T01:19:52.617Z,16.75
2022-12-09T01:24:54.120Z,19.60
2022-12-09T01:29:55.629Z,23.67
2022-12-09T01:34:57.133Z,19.42
2022-12-09T01:39:58.771Z,20.52
2022-12-09T01:45:38.039Z,18.42
2022-12-09T01:50:50.351Z,18.90
2022-12-09T01:55:57.513Z,19.27
2022-12-09T02:00:59.256Z,18.23
2022-12-09T02:06:00.708Z,19.13
2022-12-09T02:11:22.301Z,19.05
2022-12-09T02:16:26.398Z,24.42
2022-12-09T02:21:37.610Z,18.30
2022-12-09T02:26:43.914Z,15.93
2022-12-09T02:31:57.206Z,24.02
2022-12-09T02:37:06.336Z,20.67
2022-12-09T02:42:11.705Z,20.10
2022-12-09T02:47:16.736Z,22.85
2022-12-09T02:52:20.389Z,23.52
2022-12-09T02:57:26.129Z,23.63
2022-12-09T03:02:31.778Z,24.83
2022-12-09T03:08:03.311Z,27.58
2022-12-09T03:13:17.031Z,18.45
2022-12-09T03:18:24.997Z,22.92
2022-12-09T03:23:28.978Z,21.17
2022-12-09T03:28:37.327Z,20.13
2022-12-09T03:33:42.658Z,24.15
2022-12-09T03:38:47.874Z,24.92
2022-12-09T03:43:55.503Z,24.00
2022-12-09T03:48:57.940Z,21.95
2022-12-09T03:54:06.253Z,24.25
2022-12-09T03:59:11.883Z,22.63
2022-12-09T04:04:13.698Z,25.35
2022-12-09T04:09:15.692Z,23.88
2022-12-09T04:14:17.808Z,23.60
2022-12-09T04:19:19.500Z,27.00
2022-12-09T04:24:21.462Z,28.10
2022-12-09T04:29:23.104Z,30.25
2022-12-09T04:34:24.663Z,25.95
2022-12-09T04:39:26.555Z,28.35
2022-12-09T04:44:28.073Z,27.85
2022-12-09T04:49:29.827Z,28.48
2022-12-09T04:54:31.264Z,25.90
2022-12-09T04:59:33.073Z,29.20
2022-12-09T05:04:35.184Z,28.02
2022-12-09T05:09:36.815Z,32.20
2022-12-09T05:14:38.974Z,30.90
2022-12-09T05:19:40.526Z,27.10
2022-12-09T05:24:42.253Z,29.48
2022-12-09T05:29:43.759Z,28.75
2022-12-09T05:34:45.375Z,33.20
2022-12-09T05:39:47.040Z,28.95
2022-12-09T05:44:48.795Z,33.58
2022-12-09T05:49:50.379Z,28.20
2022-12-09T05:54:51.951Z,28.83
2022-12-09T05:59:53.714Z,28.60
2022-12-09T07:36:30.375Z,24.73
2022-12-09T07:41:32.423Z,28.67
2022-12-09T07:46:34.243Z,27.38
2022-12-09T07:51:36.485Z,27.05
2022-12-09T07:56:38.617Z,27.83
2022-12-09T08:01:40.941Z,27.17
2022-12-09T08:06:42.729Z,32.33
2022-12-09T08:11:44.429Z,29.88
2022-12-09T08:16:46.287Z,29.95
2022-12-09T08:21:54.164Z,25.33
2022-12-09T08:26:56.505Z,24.63
2022-12-09T08:31:58.404Z,24.73
2022-12-09T08:37:02.311Z,25.60
2022-12-09T08:42:04.369Z,25.25
2022-12-09T08:47:06.121Z,29.50
2022-12-09T08:52:08.100Z,28.08
2022-12-09T08:57:09.617Z,23.45
2022-12-09T09:02:11.686Z,26.20
2022-12-09T09:07:14.057Z,29.98
2022-12-09T09:12:16.117Z,26.52
2022-12-09T09:17:17.624Z,27.85
2022-12-09T09:22:19.679Z,21.95
2022-12-09T09:27:21.762Z,29.20
2022-12-09T09:32:23.925Z,31.85
2022-12-09T09:37:25.904Z,30.83
2022-12-09T09:42:37.827Z,25.60
2022-12-09T09:47:47.998Z,24.75
2022-12-09T09:52:52.563Z,25.30
2022-12-09T09:57:58.252Z,24.08
2022-12-09T10:03:35.797Z,26.10
2022-12-09T10:08:37.698Z,23.52
2022-12-09T10:13:39.760Z,26.80
2022-12-09T10:18:53.687Z,25.98
2022-12-09T10:23:57.685Z,25.55
2022-12-09T10:29:23.950Z,22.88
2022-12-09T10:34:25.750Z,23.52
2022-12-09T10:39:29.173Z,25.58
2022-12-09T10:44:31.180Z,22.67
2022-12-09T10:49:35.885Z,20.92
2022-12-09T12:25:00.049Z,12.65
2022-12-09T12:30:23.596Z,15.77
2022-12-09T12:57:21.614Z,14.40
2022-12-09T13:50:59.918Z,10.48
2022-12-09T13:56:02.766Z,13.00
2022-12-09T14:11:53.890Z,16.60
2022-12-09T14:28:14.100Z,16.27
2022-12-09T15:16:27.662Z,12.32
2022-12-09T15:21:31.587Z,15.52
2022-12-09T15:26:33.521Z,11.20
2022-12-09T15:31:35.165Z,16.13
2022-12-09T15:36:40.513Z,13.38
2022-12-09T15:41:44.846Z,10.15
2022-12-09T15:46:50.070Z,12.30
2022-12-09T15:51:55.275Z,15.57
2022-12-09T15:57:00.040Z,15.90
2022-12-09T16:02:01.885Z,15.63
2022-12-09T16:07:08.483Z,15.45
2022-12-09T16:12:27.512Z,17.42
2022-12-09T16:22:52.458Z,15.35
2022-12-09T16:28:03.404Z,14.32
2022-12-09T16:33:22.041Z,14.35
2022-12-09T16:38:23.925Z,15.07
2022-12-09T16:43:26.527Z,16.17
2022-12-09T16:48:29.582Z,17.92
2022-12-09T16:53:53.119Z,16.75
2022-12-09T16:58:55.468Z,23.77
2022-12-09T17:04:11.359Z,20.63
2022-12-09T17:09:12.832Z,15.63
2022-12-09T17:19:37.451Z,22.17
2022-12-09T17:24:39.044Z,16.02
2022-12-09T17:29:40.809Z,16.35
2022-12-09T17:34:42.366Z,18.30
2022-12-09T17:39:43.974Z,19.17
2022-12-09T17:44:45.452Z,16.98
2022-12-09T17:49:46.852Z,18.92
2022-12-09T17:54:48.278Z,17.67
2022-12-09T17:59:49.743Z,22.63
2022-12-09T18:04:51.231Z,20.95
2022-12-09T18:09:54.631Z,16.65
2022-12-09T18:14:56.289Z,15.10
2022-12-09T18:19:57.987Z,18.50
2022-12-09T18:24:59.467Z,13.43
2022-12-09T18:30:00.962Z,15.80
2022-12-09T18:35:02.454Z,21.02
2022-12-09T18:40:05.118Z,15.70
2022-12-09T18:45:07.275Z,16.77
2022-12-09T18:50:09.593Z,18.63
2022-12-09T18:55:11.385Z,17.50
2022-12-09T19:00:13.150Z,15.95
2022-12-09T19:05:14.602Z,16.20
2022-12-09T19:10:16.078Z,24.67
2022-12-09T19:15:17.647Z,15.38
2022-12-09T19:20:19.173Z,14.60
2022-12-09T19:25:20.743Z,20.00
2022-12-09T19:30:22.177Z,16.60
2022-12-09T19:35:24.039Z,15.45
2022-12-09T19:40:25.468Z,15.68
2022-12-09T19:45:26.884Z,20.67
2022-12-09T19:50:28.332Z,15.50
2022-12-09T19:55:29.850Z,17.25
2022-12-09T20:00:34.579Z,13.55
2022-12-09T20:05:47.313Z,15.80
2022-12-09T20:10:48.832Z,14.52
2022-12-09T20:15:50.403Z,15.00
2022-12-09T20:20:51.923Z,15.15
2022-12-09T20:25:53.693Z,16.27
2022-12-09T20:30:55.167Z,20.20
2022-12-09T20:35:57.066Z,16.25
2022-12-09T20:41:02.844Z,16.35
2022-12-09T20:46:09.286Z,18.13
2022-12-09T20:51:15.685Z,15.52
2022-12-09T20:56:18.436Z,17.85
2022-12-09T21:01:24.249Z,14.65
2022-12-09T21:06:28.462Z,15.35
2022-12-09T21:11:30.110Z,18.23
2022-12-09T21:16:33.375Z,17.25
2022-12-09T21:21:36.803Z,19.77
2022-12-09T21:26:38.643Z,18.23
2022-12-09T21:31:41.504Z,17.63
2022-12-09T21:36:44.309Z,15.20
2022-12-09T21:41:45.749Z,17.50
2022-12-09T21:46:47.246Z,15.20
2022-12-09T21:51:48.734Z,15.40
2022-12-09T21:56:50.379Z,15.32
2022-12-09T22:01:51.831Z,18.77
2022-12-09T22:06:53.314Z,17.33
2022-12-09T22:11:54.815Z,19.35
2022-12-09T22:16:56.389Z,14.90
2022-12-09T22:21:57.881Z,13.00
2022-12-09T22:26:59.307Z,14.73
2022-12-09T22:32:00.799Z,16.52
2022-12-09T22:37:20.991Z,16.95
2022-12-09T22:42:23.651Z,16.70
2022-12-09T22:47:25.171Z,19.73
2022-12-09T22:52:26.576Z,15.95
2022-12-09T22:57:28.016Z,16.13
2022-12-09T23:02:29.511Z,15.30
2022-12-09T23:07:31.060Z,16.27
2022-12-09T23:12:32.487Z,15.85
2022-12-09T23:17:34.196Z,18.83
2022-12-09T23:22:37.169Z,16.38
2022-12-09T23:27:38.608Z,18.42
2022-12-09T23:32:40.117Z,20.17
2022-12-09T23:37:41.685Z,22.05
2022-12-09T23:42:43.180Z,17.52
2022-12-09T23:47:44.687Z,18.55
2022-12-09T23:52:46.109Z,16.80
2022-12-09T23:57:47.630Z,19.75
